createdAt,value
2018-06-11T00:00:09.020Z,24.52
2018-06-11T00:01:12.352Z,24.92
2018-06-11T00:02:15.743Z,26.30
2018-06-11T00:03:19.095Z,23.92
2018-06-11T00:04:22.490Z,25.65
2018-06-11T00:05:25.847Z,25.82
2018-06-11T00:06:29.183Z,25.57
2018-06-11T00:07:32.524Z,25.35
2018-06-11T00:08:35.860Z,24.65
2018-06-11T00:09:39.247Z,26.42
2018-06-11T00:10:42.571Z,25.45
2018-06-11T00:11:45.929Z,25.52
2018-06-11T00:12:49.289Z,25.48
2018-06-11T00:13:52.676Z,24.63
2018-06-11T00:14:56.028Z,25.40
2018-06-11T00:15:59.381Z,25.82
2018-06-11T00:17:02.743Z,25.95
2018-06-11T00:18:06.083Z,25.30
2018-06-11T00:19:09.465Z,25.82
2018-06-11T00:20:12.824Z,25.60
2018-06-11T00:21:16.205Z,24.40
2018-06-11T00:22:19.551Z,26.33
2018-06-11T00:23:22.888Z,25.45
2018-06-11T00:24:26.273Z,25.70
2018-06-11T00:25:29.613Z,26.90
2018-06-11T00:26:32.999Z,26.02
2018-06-11T00:27:36.336Z,27.80
2018-06-11T00:28:40.574Z,26.80
2018-06-11T00:29:43.936Z,26.35
2018-06-11T00:30:47.290Z,27.15
2018-06-11T00:31:50.699Z,26.73
2018-06-11T00:32:54.020Z,27.60
2018-06-11T00:33:57.361Z,25.65
2018-06-11T00:35:00.769Z,25.88
2018-06-11T00:36:04.103Z,25.72
2018-06-11T00:37:07.512Z,25.23
2018-06-11T00:38:10.852Z,24.47
2018-06-11T00:39:14.219Z,26.02
2018-06-11T00:40:17.573Z,24.40
2018-06-11T00:41:20.920Z,25.32
2018-06-11T00:42:24.252Z,25.55
2018-06-11T00:43:30.583Z,24.77
2018-06-11T00:44:33.950Z,25.68
2018-06-11T00:45:37.310Z,25.27
2018-06-11T00:46:40.643Z,25.45
2018-06-11T00:47:44.008Z,24.72
2018-06-11T00:48:47.333Z,24.67
2018-06-11T00:49:50.422Z,24.75
2018-06-11T00:50:53.754Z,23.65
2018-06-11T00:51:57.114Z,24.00
2018-06-11T00:53:00.449Z,25.77
2018-06-11T00:54:03.843Z,25.30
2018-06-11T00:55:07.199Z,25.15
2018-06-11T00:56:10.924Z,26.73
2018-06-11T00:57:14.278Z,25.72
2018-06-11T00:58:17.699Z,26.68
2018-06-11T00:59:21.027Z,26.48
2018-06-11T01:00:24.376Z,25.10
2018-06-11T01:01:27.715Z,25.80
2018-06-11T01:02:31.069Z,26.65
2018-06-11T01:03:34.486Z,25.23
2018-06-11T01:04:37.878Z,24.72
2018-06-11T01:05:41.211Z,25.50
2018-06-11T01:06:44.556Z,25.45
2018-06-11T01:07:47.893Z,24.27
2018-06-11T01:08:51.276Z,25.68
2018-06-11T01:09:54.604Z,23.92
2018-06-11T01:10:57.991Z,24.67
2018-06-11T01:12:01.345Z,24.50
2018-06-11T01:13:04.730Z,24.30
2018-06-11T01:14:08.111Z,25.05
2018-06-11T01:15:11.448Z,23.40
2018-06-11T01:16:14.790Z,23.45
2018-06-11T01:17:18.168Z,24.10
2018-06-11T01:18:21.522Z,25.30
2018-06-11T01:19:24.899Z,24.65
2018-06-11T01:20:28.231Z,26.40
2018-06-11T01:21:31.601Z,27.25
2018-06-11T01:22:34.950Z,26.42
2018-06-11T01:23:44.991Z,27.80
2018-06-11T01:24:48.361Z,25.15
2018-06-11T01:25:51.692Z,26.10
2018-06-11T01:26:55.060Z,26.48
2018-06-11T01:27:58.416Z,26.45
2018-06-11T01:29:01.808Z,26.82
2018-06-11T01:30:05.237Z,27.77
2018-06-11T01:31:08.597Z,27.65
2018-06-11T01:32:11.979Z,26.60
2018-06-11T01:33:15.337Z,27.35
2018-06-11T01:34:25.131Z,28.40
2018-06-11T01:35:28.452Z,27.20
2018-06-11T01:36:31.846Z,27.48
2018-06-11T01:37:35.197Z,25.62
2018-06-11T01:38:38.561Z,27.62
2018-06-11T01:39:41.919Z,27.98
2018-06-11T01:40:45.268Z,28.35
2018-06-11T01:41:48.631Z,28.30
2018-06-11T01:42:51.991Z,27.75
2018-06-11T01:43:55.315Z,28.42
2018-06-11T01:44:58.659Z,26.80
2018-06-11T01:46:02.017Z,27.05
2018-06-11T01:47:05.416Z,25.88
2018-06-11T01:48:08.811Z,25.85
2018-06-11T01:49:12.151Z,27.25
2018-06-11T01:50:15.482Z,27.70
2018-06-11T01:51:18.815Z,27.32
2018-06-11T01:52:22.130Z,27.65
2018-06-11T01:53:25.507Z,26.80
2018-06-11T01:54:28.835Z,26.70
2018-06-11T01:55:32.195Z,27.17
2018-06-11T01:56:35.536Z,26.60
2018-06-11T01:57:38.888Z,26.27
2018-06-11T01:58:41.976Z,25.85
2018-06-11T01:59:45.335Z,26.12
2018-06-11T02:00:48.699Z,25.27
2018-06-11T02:01:52.115Z,26.12
2018-06-11T02:02:55.487Z,27.10
2018-06-11T02:03:58.892Z,24.72
2018-06-11T02:05:02.009Z,25.88
2018-06-11T02:06:05.413Z,25.50
2018-06-11T02:07:08.752Z,25.27
2018-06-11T02:08:12.120Z,23.92
2018-06-11T02:09:15.521Z,25.35
2018-06-11T02:10:18.896Z,24.92
2018-06-11T02:11:22.282Z,24.18
2018-06-11T02:12:25.625Z,23.87
2018-06-11T02:13:28.976Z,21.27
2018-06-11T02:14:32.355Z,23.95
2018-06-11T02:15:35.724Z,24.00
2018-06-11T02:16:39.063Z,24.32
2018-06-11T02:17:42.416Z,23.87
2018-06-11T02:18:45.798Z,22.67
2018-06-11T02:19:49.201Z,22.58
2018-06-11T02:20:52.546Z,22.58
2018-06-11T02:21:55.960Z,24.05
2018-06-11T02:22:59.264Z,22.82
2018-06-11T02:24:02.612Z,23.25
2018-06-11T02:25:05.995Z,22.87
2018-06-11T02:26:09.346Z,22.55
2018-06-11T02:27:12.710Z,22.05
2018-06-11T02:28:16.090Z,23.20
2018-06-11T02:29:19.499Z,21.62
2018-06-11T02:30:22.887Z,22.82
2018-06-11T02:31:26.247Z,22.82
2018-06-11T02:32:29.650Z,22.85
2018-06-11T02:33:33.017Z,23.32
2018-06-11T02:34:36.351Z,22.90
2018-06-11T02:35:39.741Z,22.75
2018-06-11T02:36:43.106Z,23.65
2018-06-11T02:37:46.454Z,22.98
2018-06-11T02:38:49.816Z,22.40
2018-06-11T02:39:53.173Z,22.95
2018-06-11T02:40:56.539Z,23.60
2018-06-11T02:41:59.931Z,24.10
2018-06-11T02:43:03.363Z,24.25
2018-06-11T02:44:06.725Z,23.12
2018-06-11T02:45:10.059Z,22.73
2018-06-11T02:46:13.408Z,22.70
2018-06-11T02:47:16.768Z,22.50
2018-06-11T02:48:20.149Z,23.62
2018-06-11T02:49:23.498Z,22.30
2018-06-11T02:50:26.877Z,22.80
2018-06-11T02:51:30.223Z,22.77
2018-06-11T02:52:33.584Z,20.90
2018-06-11T02:53:36.991Z,25.35
2018-06-11T02:54:40.336Z,23.77
2018-06-11T02:55:43.691Z,23.77
2018-06-11T02:56:46.783Z,25.68
2018-06-11T02:57:50.141Z,23.40
2018-06-11T02:58:53.532Z,23.25
2018-06-11T02:59:56.878Z,23.73
2018-06-11T03:01:00.268Z,23.38
2018-06-11T03:02:03.738Z,23.45
2018-06-11T03:03:07.109Z,21.10
2018-06-11T03:04:10.496Z,22.90
2018-06-11T03:05:13.901Z,24.57
2018-06-11T03:06:17.240Z,24.63
2018-06-11T03:07:20.606Z,23.55
2018-06-11T03:08:23.965Z,23.73
2018-06-11T03:09:27.338Z,23.12
2018-06-11T03:10:30.734Z,23.52
2018-06-11T03:11:34.111Z,22.75
2018-06-11T03:12:37.516Z,22.85
2018-06-11T03:13:40.867Z,23.27
2018-06-11T03:14:44.203Z,22.70
2018-06-11T03:15:47.583Z,24.40
2018-06-11T03:16:50.931Z,22.17
2018-06-11T03:17:54.335Z,21.60
2018-06-11T03:18:57.704Z,23.57
2018-06-11T03:20:01.045Z,22.00
2018-06-11T03:21:04.488Z,21.70
2018-06-11T03:22:07.832Z,21.60
2018-06-11T03:23:11.164Z,21.82
2018-06-11T03:24:14.539Z,20.60
2018-06-11T03:25:17.889Z,22.90
2018-06-11T03:26:21.275Z,21.42
2018-06-11T03:27:24.628Z,23.02
2018-06-11T03:28:28.000Z,22.15
2018-06-11T03:29:31.375Z,22.60
2018-06-11T03:30:34.732Z,23.15
2018-06-11T03:31:38.081Z,22.50
2018-06-11T03:32:41.437Z,22.40
2018-06-11T03:33:44.808Z,23.52
2018-06-11T03:34:48.172Z,22.00
2018-06-11T03:35:51.548Z,22.32
2018-06-11T03:36:54.932Z,23.30
2018-06-11T03:37:58.350Z,22.30
2018-06-11T03:39:01.696Z,22.25
2018-06-11T03:40:05.052Z,23.70
2018-06-11T03:41:08.402Z,24.05
2018-06-11T03:42:11.750Z,22.52
2018-06-11T03:44:24.744Z,25.05
2018-06-11T03:45:28.116Z,24.87
2018-06-11T03:46:31.465Z,23.95
2018-06-11T03:47:34.807Z,24.67
2018-06-11T03:48:38.239Z,24.20
2018-06-11T03:49:41.613Z,22.80
2018-06-11T03:50:44.971Z,24.32
2018-06-11T03:51:54.752Z,25.55
2018-06-11T03:52:58.124Z,23.65
2018-06-11T03:54:01.506Z,24.72
2018-06-11T03:55:04.940Z,26.48
2018-06-11T03:56:08.307Z,25.62
2018-06-11T03:57:11.701Z,23.20
2018-06-11T03:58:15.073Z,23.73
2018-06-11T03:59:18.489Z,24.70
2018-06-11T04:00:21.859Z,25.15
2018-06-11T04:01:25.230Z,24.77
2018-06-11T04:02:28.603Z,24.87
2018-06-11T04:03:31.949Z,24.67
2018-06-11T04:04:35.352Z,24.63
2018-06-11T04:05:38.748Z,23.95
2018-06-11T04:06:42.120Z,24.67
2018-06-11T04:07:45.486Z,25.68
2018-06-11T04:08:48.829Z,24.25
2018-06-11T04:09:52.239Z,26.68
2018-06-11T04:10:55.622Z,26.00
2018-06-11T04:11:58.953Z,25.23
2018-06-11T04:13:02.311Z,26.00
2018-06-11T04:14:05.663Z,27.13
2018-06-11T04:15:09.039Z,25.08
2018-06-11T04:16:12.405Z,27.75
2018-06-11T04:17:15.746Z,26.12
2018-06-11T04:18:19.120Z,25.75
2018-06-11T04:19:22.490Z,26.02
2018-06-11T04:20:25.860Z,26.93
2018-06-11T04:21:35.483Z,23.73
2018-06-11T04:22:38.832Z,22.45
2018-06-11T04:23:42.187Z,24.98
2018-06-11T04:24:45.579Z,23.75
2018-06-11T04:25:48.969Z,24.00
2018-06-11T04:26:52.365Z,24.75
2018-06-11T04:28:02.411Z,24.67
2018-06-11T04:29:05.773Z,24.35
2018-06-11T04:30:09.122Z,23.95
2018-06-11T04:31:12.501Z,22.95
2018-06-11T04:32:15.852Z,23.12
2018-06-11T04:33:19.197Z,23.52
2018-06-11T04:34:22.534Z,22.95
2018-06-11T04:35:25.863Z,23.22
2018-06-11T04:36:29.259Z,21.82
2018-06-11T04:37:32.595Z,23.42
2018-06-11T04:38:35.926Z,23.50
2018-06-11T04:39:39.336Z,22.65
2018-06-11T04:40:42.655Z,21.70
2018-06-11T04:41:46.029Z,22.55
2018-06-11T04:42:49.349Z,21.97
2018-06-11T04:43:52.706Z,23.10
2018-06-11T04:44:56.064Z,22.30
2018-06-11T04:45:59.409Z,21.85
2018-06-11T04:47:05.687Z,20.85
2018-06-11T04:48:09.051Z,21.70
2018-06-11T04:49:12.372Z,21.87
2018-06-11T04:50:15.709Z,21.07
2018-06-11T04:51:19.038Z,21.02
2018-06-11T04:52:22.459Z,18.90
2018-06-11T04:53:25.800Z,20.48
2018-06-11T04:54:29.142Z,21.70
2018-06-11T04:55:32.470Z,20.92
2018-06-11T04:56:35.834Z,21.25
2018-06-11T04:57:39.215Z,20.30
2018-06-11T04:58:42.555Z,21.48
2018-06-11T04:59:45.907Z,20.02
2018-06-11T05:00:49.257Z,20.05
2018-06-11T05:01:52.633Z,19.42
2018-06-11T05:02:55.964Z,20.50
2018-06-11T05:03:59.309Z,19.12
2018-06-11T05:05:02.692Z,19.37
2018-06-11T05:06:06.046Z,21.15
2018-06-11T05:07:09.496Z,21.95
2018-06-11T05:08:12.919Z,20.48
2018-06-11T05:09:16.347Z,19.90
2018-06-11T05:10:19.706Z,20.97
2018-06-11T05:11:23.086Z,20.30
2018-06-11T05:12:26.449Z,20.52
2018-06-11T05:13:29.795Z,22.55
2018-06-11T05:14:33.148Z,21.77
2018-06-11T05:15:36.489Z,22.27
2018-06-11T05:16:39.838Z,21.17
2018-06-11T05:17:43.216Z,21.00
2018-06-11T05:18:46.571Z,20.80
2018-06-11T05:19:49.926Z,22.15
2018-06-11T05:20:53.289Z,22.27
2018-06-11T05:21:56.613Z,20.65
2018-06-11T05:22:59.989Z,21.40
2018-06-11T05:24:03.320Z,20.88
2018-06-11T05:25:06.668Z,21.20
2018-06-11T05:26:10.021Z,21.60
2018-06-11T05:27:13.360Z,21.57
2018-06-11T05:28:16.751Z,21.77
2018-06-11T05:29:20.082Z,22.65
2018-06-11T05:30:23.420Z,23.18
2018-06-11T05:31:26.764Z,22.37
2018-06-11T05:32:30.240Z,22.17
2018-06-11T05:33:33.599Z,22.10
2018-06-11T05:34:36.693Z,21.55
2018-06-11T05:35:40.043Z,20.60
2018-06-11T05:36:43.389Z,22.70
2018-06-11T05:37:46.787Z,24.20
2018-06-11T05:38:50.110Z,24.43
2018-06-11T05:39:53.449Z,24.20
2018-06-11T05:40:56.788Z,23.42
2018-06-11T05:42:00.169Z,22.15
2018-06-11T05:43:03.511Z,21.73
2018-06-11T05:44:06.866Z,23.25
2018-06-11T05:45:10.262Z,23.27
2018-06-11T05:46:13.607Z,22.60
2018-06-11T05:47:16.987Z,23.00
2018-06-11T05:48:20.310Z,23.15
2018-06-11T05:49:23.634Z,22.37
2018-06-11T05:50:26.954Z,22.00
2018-06-11T05:51:30.319Z,22.42
2018-06-11T05:52:33.710Z,21.35
2018-06-11T05:53:37.042Z,23.57
2018-06-11T05:54:40.392Z,23.75
2018-06-11T05:55:43.736Z,25.02
2018-06-11T05:56:47.072Z,24.32
2018-06-11T05:57:50.427Z,22.13
2018-06-11T05:58:53.768Z,22.45
2018-06-11T05:59:57.123Z,22.87
2018-06-11T06:01:00.533Z,21.75
2018-06-11T06:02:03.925Z,22.37
2018-06-11T06:03:07.288Z,23.42
2018-06-11T06:04:10.649Z,22.77
2018-06-11T06:05:14.001Z,23.55
2018-06-11T06:06:17.398Z,22.55
2018-06-11T06:07:20.759Z,22.52
2018-06-11T06:08:24.107Z,23.57
2018-06-11T06:09:27.537Z,22.10
2018-06-11T06:10:30.872Z,22.42
2018-06-11T06:11:33.941Z,23.83
2018-06-11T06:12:37.323Z,23.45
2018-06-11T06:13:40.696Z,23.60
2018-06-11T06:14:44.068Z,22.17
2018-06-11T06:15:47.400Z,20.25
2018-06-11T06:16:50.740Z,22.73
2018-06-11T06:17:54.103Z,22.00
2018-06-11T06:18:57.467Z,22.37
2018-06-11T06:20:00.843Z,21.57
2018-06-11T06:21:04.205Z,22.58
2018-06-11T06:22:07.532Z,21.00
2018-06-11T06:23:10.871Z,22.30
2018-06-11T06:24:14.205Z,21.87
2018-06-11T06:25:17.576Z,21.80
2018-06-11T06:26:20.951Z,21.20
2018-06-11T06:27:24.314Z,20.32
2018-06-11T06:28:27.673Z,20.02
2018-06-11T06:29:31.026Z,20.52
2018-06-11T06:30:34.344Z,21.33
2018-06-11T06:31:37.749Z,20.65
2018-06-11T06:32:41.083Z,21.05
2018-06-11T06:33:44.414Z,20.55
2018-06-11T06:34:47.860Z,21.15
2018-06-11T06:35:51.168Z,21.17
2018-06-11T06:36:54.542Z,22.05
2018-06-11T06:37:57.884Z,20.08
2018-06-11T06:39:01.244Z,20.35
2018-06-11T06:40:04.596Z,19.87
2018-06-11T06:41:07.929Z,20.97
2018-06-11T06:42:11.312Z,20.30
2018-06-11T06:43:14.656Z,19.00
2018-06-11T06:44:18.041Z,20.27
2018-06-11T06:45:21.397Z,20.70
2018-06-11T06:46:24.768Z,20.37
2018-06-11T06:47:28.144Z,21.33
2018-06-11T06:48:31.483Z,19.90
2018-06-11T06:49:34.823Z,20.10
2018-06-11T06:50:38.169Z,20.90
2018-06-11T06:51:41.515Z,21.90
2018-06-11T06:52:44.956Z,20.72
2018-06-11T06:53:48.312Z,20.62
2018-06-11T06:54:51.685Z,20.12
2018-06-11T06:55:55.017Z,19.10
2018-06-11T06:56:58.358Z,18.85
2018-06-11T06:58:01.777Z,19.73
2018-06-11T06:59:05.114Z,19.40
2018-06-11T07:00:08.445Z,19.12
2018-06-11T07:01:11.792Z,19.17
2018-06-11T07:02:15.124Z,18.82
2018-06-11T07:03:18.505Z,19.17
2018-06-11T07:04:21.854Z,19.25
2018-06-11T07:05:25.207Z,19.80
2018-06-11T07:06:28.572Z,19.30
2018-06-11T07:07:31.902Z,18.55
2018-06-11T07:08:35.275Z,19.15
2018-06-11T07:09:38.665Z,18.92
2018-06-11T07:10:41.994Z,20.15
2018-06-11T07:11:45.366Z,18.60
2018-06-11T07:12:48.717Z,19.40
2018-06-11T07:13:52.057Z,19.95
2018-06-11T07:14:55.412Z,19.35
2018-06-11T07:15:58.794Z,18.17
2018-06-11T07:17:02.543Z,18.65
2018-06-11T07:18:05.884Z,19.42
2018-06-11T07:19:09.232Z,20.08
2018-06-11T07:20:12.584Z,20.12
2018-06-11T07:21:15.971Z,18.45
2018-06-11T07:22:19.310Z,18.80
2018-06-11T07:23:22.653Z,18.90
2018-06-11T07:24:26.017Z,19.45
2018-06-11T07:25:29.373Z,19.42
2018-06-11T07:26:32.712Z,19.92
2018-06-11T07:27:36.052Z,20.00
2018-06-11T07:28:39.430Z,19.42
2018-06-11T07:29:42.812Z,20.43
2018-06-11T07:30:46.182Z,20.02
2018-06-11T07:31:49.529Z,19.60
2018-06-11T07:32:52.913Z,20.95
2018-06-11T07:33:56.252Z,20.52
2018-06-11T07:34:59.602Z,18.57
2018-06-11T07:36:02.941Z,20.02
2018-06-11T07:37:06.285Z,19.62
2018-06-11T07:38:09.659Z,19.90
2018-06-11T07:39:13.014Z,18.65
2018-06-11T07:40:16.373Z,19.00
2018-06-11T07:41:19.713Z,18.25
2018-06-11T07:42:23.061Z,18.82
2018-06-11T07:43:26.426Z,20.95
2018-06-11T07:44:29.776Z,20.10
2018-06-11T07:45:33.135Z,19.48
2018-06-11T07:46:36.508Z,18.45
2018-06-11T07:47:39.862Z,19.60
2018-06-11T07:48:43.204Z,19.55
2018-06-11T07:49:46.316Z,19.05
2018-06-11T07:50:49.692Z,18.17
2018-06-11T07:51:53.017Z,19.85
2018-06-11T07:52:56.365Z,19.45
2018-06-11T07:53:59.744Z,18.20
2018-06-11T07:55:03.097Z,19.82
2018-06-11T07:56:06.488Z,18.00
2018-06-11T07:57:09.835Z,18.75
2018-06-11T07:58:13.159Z,18.05
2018-06-11T07:59:16.507Z,16.70
2018-06-11T08:00:19.859Z,19.52
2018-06-11T08:01:23.274Z,18.05
2018-06-11T08:02:26.624Z,18.95
2018-06-11T08:03:29.973Z,17.20
2018-06-11T08:04:33.309Z,19.10
2018-06-11T08:05:36.759Z,18.05
2018-06-11T08:06:40.136Z,17.57
2018-06-11T08:07:43.529Z,18.12
2018-06-11T08:08:46.876Z,17.05
2018-06-11T08:09:50.227Z,17.10
2018-06-11T08:10:53.578Z,19.00
2018-06-11T08:11:56.944Z,17.45
2018-06-11T08:13:00.335Z,17.07
2018-06-11T08:14:03.689Z,16.70
2018-06-11T08:15:07.070Z,16.30
2018-06-11T08:16:10.421Z,15.78
2018-06-11T08:17:13.769Z,16.70
2018-06-11T08:18:17.142Z,16.82
2018-06-11T08:19:20.483Z,18.32
2018-06-11T08:20:23.831Z,17.70
2018-06-11T08:21:27.154Z,18.95
2018-06-11T08:22:30.524Z,17.80
2018-06-11T08:23:33.860Z,19.07
2018-06-11T08:24:37.202Z,16.85
2018-06-11T08:25:40.536Z,18.23
2018-06-11T08:26:43.898Z,18.73
2018-06-11T08:27:47.233Z,18.95
2018-06-11T08:28:50.598Z,18.70
2018-06-11T08:29:53.933Z,19.25
2018-06-11T08:30:57.292Z,19.12
2018-06-11T08:32:00.651Z,18.80
2018-06-11T08:33:03.989Z,17.15
2018-06-11T08:34:07.375Z,16.52
2018-06-11T08:35:13.675Z,16.50
2018-06-11T08:36:17.011Z,17.55
2018-06-11T08:37:20.338Z,16.30
2018-06-11T08:38:23.676Z,15.93
2018-06-11T08:39:27.063Z,15.58
2018-06-11T08:40:30.435Z,17.07
2018-06-11T08:41:33.776Z,16.70
2018-06-11T08:42:37.125Z,16.80
2018-06-11T08:43:40.489Z,17.15
2018-06-11T08:44:43.904Z,16.07
2018-06-11T08:45:46.973Z,16.85
2018-06-11T08:46:50.315Z,16.05
2018-06-11T08:47:53.665Z,16.70
2018-06-11T08:48:57.065Z,17.67
2018-06-11T08:50:00.489Z,17.23
2018-06-11T08:51:03.844Z,16.45
2018-06-11T08:52:07.207Z,17.07
2018-06-11T08:53:10.539Z,16.60
2018-06-11T08:54:13.894Z,16.40
2018-06-11T08:55:17.261Z,17.60
2018-06-11T08:56:20.647Z,17.23
2018-06-11T08:57:23.975Z,16.73
2018-06-11T08:58:27.382Z,16.37
2018-06-11T08:59:30.729Z,15.48
2018-06-11T09:01:43.919Z,15.30
2018-06-11T09:02:47.304Z,15.32
2018-06-11T09:03:50.632Z,14.03
2018-06-11T09:04:53.992Z,13.93
2018-06-11T09:05:57.360Z,13.00
2018-06-11T09:07:00.811Z,13.45
2018-06-11T09:08:04.163Z,13.07
2018-06-11T09:09:08.934Z,13.55
2018-06-11T09:10:12.267Z,12.40
2018-06-11T09:11:15.636Z,13.00
2018-06-11T09:12:19.008Z,14.67
2018-06-11T09:13:22.403Z,13.88
2018-06-11T09:14:25.740Z,13.83
2018-06-11T09:15:29.085Z,13.85
2018-06-11T09:16:32.427Z,13.98
2018-06-11T09:17:35.770Z,13.90
2018-06-11T09:18:39.255Z,14.30
2018-06-11T09:19:42.597Z,13.23
2018-06-11T09:20:45.944Z,14.67
2018-06-11T09:21:49.310Z,13.00
2018-06-11T09:22:52.679Z,13.88
2018-06-11T09:23:56.043Z,13.50
2018-06-11T09:24:59.431Z,14.40
2018-06-11T09:26:02.825Z,13.65
2018-06-11T09:27:06.200Z,13.05
2018-06-11T09:28:09.269Z,13.40
2018-06-11T09:29:12.355Z,13.20
2018-06-11T09:30:15.690Z,12.88
2018-06-11T09:31:19.129Z,12.05
2018-06-11T09:32:22.476Z,12.30
2018-06-11T09:33:25.840Z,12.53
2018-06-11T09:34:29.211Z,11.65
2018-06-11T09:35:32.567Z,13.77
2018-06-11T09:36:35.672Z,13.23
2018-06-11T09:37:39.036Z,13.03
2018-06-11T09:38:42.390Z,13.83
2018-06-11T09:39:45.772Z,13.73
2018-06-11T09:40:49.123Z,14.33
2018-06-11T09:41:52.522Z,13.27
2018-06-11T09:42:55.868Z,13.33
2018-06-11T09:43:59.241Z,13.53
2018-06-11T09:45:02.633Z,13.87
2018-06-11T09:46:05.966Z,13.70
2018-06-11T09:47:09.316Z,11.97
2018-06-11T09:48:12.643Z,11.83
2018-06-11T09:49:16.011Z,12.13
2018-06-11T09:50:19.395Z,12.70
2018-06-11T09:51:22.733Z,13.60
2018-06-11T09:52:26.132Z,14.60
2018-06-11T09:53:29.467Z,14.97
2018-06-11T09:54:32.808Z,13.90
2018-06-11T09:55:36.166Z,12.73
2018-06-11T09:56:39.560Z,13.73
2018-06-11T09:57:42.949Z,14.40
2018-06-11T09:58:46.303Z,12.93
2018-06-11T09:59:49.651Z,12.60
2018-06-11T10:00:53.013Z,12.13
2018-06-11T10:01:56.408Z,11.40
2018-06-11T10:02:59.738Z,11.83
2018-06-11T10:04:03.090Z,10.73
2018-06-11T10:05:06.660Z,11.53
2018-06-11T10:06:10.017Z,10.40
2018-06-11T10:07:13.431Z,11.30
2018-06-11T10:08:16.773Z,11.30
2018-06-11T10:09:20.117Z,12.40
2018-06-11T10:10:23.473Z,12.13
2018-06-11T10:11:26.818Z,12.20
2018-06-11T10:12:30.233Z,12.20
2018-06-11T10:13:33.639Z,11.73
2018-06-11T10:14:43.511Z,12.40
2018-06-11T10:15:46.893Z,11.90
2018-06-11T10:16:50.240Z,10.70
2018-06-11T10:17:53.566Z,11.50
2018-06-11T10:18:56.967Z,11.00
2018-06-11T10:20:00.324Z,12.03
2018-06-11T10:21:03.712Z,11.57
2018-06-11T10:22:07.040Z,11.40
2018-06-11T10:23:10.388Z,10.47
2018-06-11T10:24:13.777Z,11.13
2018-06-11T10:25:17.131Z,11.20
2018-06-11T10:26:20.467Z,10.70
2018-06-11T10:27:23.794Z,11.87
2018-06-11T10:28:27.128Z,11.50
2018-06-11T10:29:30.540Z,11.87
2018-06-11T10:30:33.890Z,12.77
2018-06-11T10:31:37.237Z,11.70
2018-06-11T10:32:40.578Z,11.53
2018-06-11T10:33:43.943Z,11.20
2018-06-11T10:34:47.324Z,10.23
2018-06-11T10:35:50.688Z,10.80
2018-06-11T10:36:54.074Z,10.27
2018-06-11T10:37:57.442Z,12.30
2018-06-11T10:39:00.792Z,10.57
2018-06-11T10:40:04.222Z,11.30
2018-06-11T10:41:07.579Z,10.53
2018-06-11T10:42:10.923Z,11.20
2018-06-11T10:43:14.297Z,10.67
2018-06-11T10:44:17.680Z,12.10
2018-06-11T10:45:21.054Z,11.07
2018-06-11T10:46:24.392Z,10.10
2018-06-11T10:47:27.729Z,10.80
2018-06-11T10:48:31.098Z,11.20
2018-06-11T10:49:34.467Z,12.10
2018-06-11T10:50:37.826Z,11.40
2018-06-11T10:51:41.173Z,10.73
2018-06-11T10:52:44.514Z,10.50
2018-06-11T10:53:47.885Z,10.23
2018-06-11T10:54:51.263Z,10.83
2018-06-11T10:55:54.622Z,10.37
2018-06-11T10:56:57.982Z,10.53
2018-06-11T10:58:01.344Z,10.97
2018-06-11T10:59:04.720Z,10.40
2018-06-11T11:00:08.116Z,10.00
2018-06-11T11:01:11.483Z,11.13
2018-06-11T11:02:14.839Z,11.60
2018-06-11T11:03:18.169Z,11.60
2018-06-11T11:04:21.536Z,11.53
2018-06-11T11:05:24.885Z,10.83
2018-06-11T11:06:28.306Z,11.63
2018-06-11T11:07:31.673Z,11.77
2018-06-11T11:08:35.031Z,10.33
2018-06-11T11:09:38.417Z,10.90
2018-06-11T11:10:41.771Z,10.40
2018-06-11T11:11:45.116Z,10.20
2018-06-11T11:12:48.488Z,11.80
2018-06-11T11:13:51.876Z,10.33
2018-06-11T11:15:01.923Z,11.07
2018-06-11T11:16:05.275Z,11.07
2018-06-11T11:17:08.616Z,9.77
2018-06-11T11:18:11.961Z,10.60
2018-06-11T11:19:15.355Z,10.27
2018-06-11T11:20:18.697Z,11.07
2018-06-11T11:21:22.113Z,10.30
2018-06-11T11:22:25.448Z,10.13
2018-06-11T11:23:28.814Z,11.60
2018-06-11T11:24:32.139Z,10.33
2018-06-11T11:25:35.574Z,9.83
2018-06-11T11:26:38.944Z,10.20
2018-06-11T11:27:42.362Z,10.80
2018-06-11T11:28:45.687Z,9.67
2018-06-11T11:29:49.042Z,10.43
2018-06-11T11:30:52.440Z,9.70
2018-06-11T11:31:55.801Z,11.40
2018-06-11T11:32:59.167Z,10.10
2018-06-11T11:34:02.500Z,10.90
2018-06-11T11:35:05.907Z,11.37
2018-06-11T11:36:09.256Z,11.87
2018-06-11T11:37:12.631Z,12.90
2018-06-11T11:38:16.020Z,12.13
2018-06-11T11:39:19.386Z,12.50
2018-06-11T11:40:22.731Z,12.50
2018-06-11T11:41:26.123Z,11.50
2018-06-11T11:42:29.464Z,11.80
2018-06-11T11:43:32.859Z,11.97
2018-06-11T11:44:36.208Z,11.53
2018-06-11T11:45:39.556Z,12.97
2018-06-11T11:46:42.899Z,11.30
2018-06-11T11:47:46.232Z,12.10
2018-06-11T11:48:49.630Z,11.23
2018-06-11T11:49:52.980Z,10.50
2018-06-11T11:50:56.325Z,11.63
2018-06-11T11:51:59.667Z,11.40
2018-06-11T11:53:03.035Z,11.77
2018-06-11T11:54:06.407Z,12.30
2018-06-11T11:55:09.758Z,11.37
2018-06-11T11:56:13.134Z,10.20
2018-06-11T11:57:16.506Z,9.80
2018-06-11T11:58:19.851Z,11.50
2018-06-11T11:59:23.226Z,11.10
2018-06-11T12:00:26.621Z,10.80
2018-06-11T12:01:29.993Z,10.00
2018-06-11T12:02:33.370Z,9.53
2018-06-11T12:03:36.724Z,9.47
2018-06-11T12:04:40.103Z,9.00
2018-06-11T12:05:43.442Z,9.90
2018-06-11T12:06:46.783Z,10.50
2018-06-11T12:07:50.145Z,9.80
2018-06-11T12:08:53.509Z,10.83
2018-06-11T12:09:56.865Z,10.37
2018-06-11T12:11:00.191Z,10.37
2018-06-11T12:12:03.539Z,10.60
2018-06-11T12:13:06.867Z,10.77
2018-06-11T12:14:10.241Z,10.70
2018-06-11T12:15:13.591Z,9.13
2018-06-11T12:16:16.931Z,9.60
2018-06-11T12:17:20.286Z,9.30
2018-06-11T12:18:23.668Z,10.00
2018-06-11T12:19:26.987Z,8.90
2018-06-11T12:20:30.377Z,10.67
2018-06-11T12:21:33.729Z,10.73
2018-06-11T12:22:37.078Z,11.43
2018-06-11T12:23:40.464Z,13.80
2018-06-11T12:24:43.816Z,11.80
2018-06-11T12:25:47.153Z,11.33
2018-06-11T12:26:50.521Z,9.13
2018-06-11T12:27:53.872Z,8.70
2018-06-11T12:28:57.224Z,8.93
2018-06-11T12:30:00.596Z,8.97
2018-06-11T12:31:03.675Z,8.33
2018-06-11T12:32:07.008Z,9.40
2018-06-11T12:33:10.336Z,9.83
2018-06-11T12:34:13.692Z,9.13
2018-06-11T12:35:17.064Z,9.80
2018-06-11T12:36:20.399Z,9.37
2018-06-11T12:37:23.752Z,8.50
2018-06-11T12:38:27.094Z,8.30
2018-06-11T12:39:30.420Z,8.00
2018-06-11T12:40:33.819Z,8.27
2018-06-11T12:41:37.152Z,7.80
2018-06-11T12:42:40.483Z,7.97
2018-06-11T12:43:43.827Z,8.37
2018-06-11T12:44:47.219Z,8.93
2018-06-11T12:45:50.556Z,9.57
2018-06-11T12:46:53.925Z,10.50
2018-06-11T12:47:57.277Z,9.87
2018-06-11T12:49:00.611Z,9.90
2018-06-11T12:50:03.975Z,8.83
2018-06-11T12:51:07.752Z,8.80
2018-06-11T12:52:11.124Z,9.10
2018-06-11T12:53:14.469Z,8.30
2018-06-11T12:54:17.518Z,8.37
2018-06-11T12:55:20.848Z,8.67
2018-06-11T12:56:24.247Z,8.67
2018-06-11T12:57:27.572Z,10.33
2018-06-11T12:58:30.908Z,11.13
2018-06-11T12:59:34.238Z,10.40
2018-06-11T13:00:37.568Z,10.43
2018-06-11T13:01:40.916Z,10.10
2018-06-11T13:02:44.270Z,9.20
2018-06-11T13:03:47.607Z,10.07
2018-06-11T13:04:50.955Z,10.03
2018-06-11T13:05:54.288Z,10.40
2018-06-11T13:06:57.755Z,10.60
2018-06-11T13:08:01.103Z,10.60
2018-06-11T13:09:06.925Z,8.70
2018-06-11T13:10:10.246Z,8.60
2018-06-11T13:11:13.584Z,9.77
2018-06-11T13:12:16.964Z,9.47
2018-06-11T13:13:20.294Z,9.30
2018-06-11T13:14:23.626Z,10.00
2018-06-11T13:15:26.969Z,10.50
2018-06-11T13:16:30.334Z,10.90
2018-06-11T13:17:33.704Z,11.60
2018-06-11T13:18:37.025Z,10.83
2018-06-11T13:19:40.355Z,10.00
2018-06-11T13:20:43.737Z,10.20
2018-06-11T13:21:47.085Z,9.90
2018-06-11T13:22:50.436Z,9.33
2018-06-11T13:23:53.775Z,9.90
2018-06-11T13:24:57.099Z,9.80
2018-06-11T13:26:00.443Z,9.23
2018-06-11T13:27:03.781Z,8.90
2018-06-11T13:28:07.132Z,8.70
2018-06-11T13:29:10.488Z,8.63
2018-06-11T13:30:13.828Z,9.00
2018-06-11T13:31:17.200Z,8.10
2018-06-11T13:32:20.568Z,8.70
2018-06-11T13:33:23.900Z,7.50
2018-06-11T13:34:27.236Z,7.90
2018-06-11T13:35:30.575Z,8.60
2018-06-11T13:36:33.932Z,8.50
2018-06-11T13:37:37.309Z,8.37
2018-06-11T13:38:40.643Z,7.47
2018-06-11T13:39:43.969Z,9.53
2018-06-11T13:40:47.297Z,8.93